sensor_id;sensor_type;location;lat;lon;timestamp;P1;durP1;ratioP1;P2;durP2;ratioP2
82410;SDS011;76378;60.040;30.218;2024-02-28T00:00:24;5.43;;;3.13;;
82410;SDS011;76378;60.040;30.218;2024-02-28T00:01:25;7.32;;;3.47;;
82410;SDS011;76378;60.040;30.218;2024-02-28T00:03:28;7.45;;;3.15;;
82410;SDS011;76378;60.040;30.218;2024-02-28T00:04:28;6.30;;;2.80;;
82410;SDS011;76378;60.040;30.218;2024-02-28T00:05:29;7.28;;;3.22;;
82410;SDS011;76378;60.040;30.218;2024-02-28T00:06:29;8.20;;;3.67;;
82410;SDS011;76378;60.040;30.218;2024-02-28T00:07:30;7.13;;;3.20;;
82410;SDS011;76378;60.040;30.218;2024-02-28T00:08:30;7.55;;;2.88;;
82410;SDS011;76378;60.040;30.218;2024-02-28T00:09:31;6.03;;;2.72;;
82410;SDS011;76378;60.040;30.218;2024-02-28T00:10:32;6.32;;;2.95;;
82410;SDS011;76378;60.040;30.218;2024-02-28T00:11:32;8.07;;;2.95;;
82410;SDS011;76378;60.040;30.218;2024-02-28T00:12:33;5.40;;;3.13;;
82410;SDS011;76378;60.040;30.218;2024-02-28T00:13:34;8.32;;;3.35;;
82410;SDS011;76378;60.040;30.218;2024-02-28T00:14:35;6.43;;;3.00;;
82410;SDS011;76378;60.040;30.218;2024-02-28T00:15:36;8.40;;;3.25;;
82410;SDS011;76378;60.040;30.218;2024-02-28T00:16:36;7.47;;;3.10;;
82410;SDS011;76378;60.040;30.218;2024-02-28T00:17:40;7.20;;;3.00;;
82410;SDS011;76378;60.040;30.218;2024-02-28T00:19:42;6.78;;;3.20;;
82410;SDS011;76378;60.040;30.218;2024-02-28T00:20:44;6.85;;;2.90;;
82410;SDS011;76378;60.040;30.218;2024-02-28T00:21:44;5.10;;;2.92;;
82410;SDS011;76378;60.040;30.218;2024-02-28T00:22:45;7.53;;;3.28;;
82410;SDS011;76378;60.040;30.218;2024-02-28T00:23:46;6.47;;;2.92;;
82410;SDS011;76378;60.040;30.218;2024-02-28T00:24:46;10.52;;;3.00;;
82410;SDS011;76378;60.040;30.218;2024-02-28T00:25:47;11.00;;;4.22;;
82410;SDS011;76378;60.040;30.218;2024-02-28T00:26:48;7.97;;;3.25;;
82410;SDS011;76378;60.040;30.218;2024-02-28T00:27:48;7.45;;;3.20;;
82410;SDS011;76378;60.040;30.218;2024-02-28T00:28:49;7.05;;;3.22;;
82410;SDS011;76378;60.040;30.218;2024-02-28T00:29:50;9.73;;;3.65;;
82410;SDS011;76378;60.040;30.218;2024-02-28T00:30:50;6.88;;;3.13;;
82410;SDS011;76378;60.040;30.218;2024-02-28T00:31:51;5.50;;;3.22;;
82410;SDS011;76378;60.040;30.218;2024-02-28T00:32:51;6.28;;;2.80;;
82410;SDS011;76378;60.040;30.218;2024-02-28T00:33:53;6.78;;;2.63;;
82410;SDS011;76378;60.040;30.218;2024-02-28T00:34:53;7.05;;;2.90;;
82410;SDS011;76378;60.040;30.218;2024-02-28T00:35:54;6.60;;;2.70;;
82410;SDS011;76378;60.040;30.218;2024-02-28T00:36:54;6.72;;;3.25;;
82410;SDS011;76378;60.040;30.218;2024-02-28T00:37:55;7.35;;;3.08;;
82410;SDS011;76378;60.040;30.218;2024-02-28T00:38:55;6.80;;;3.10;;
82410;SDS011;76378;60.040;30.218;2024-02-28T00:39:56;10.27;;;3.42;;
82410;SDS011;76378;60.040;30.218;2024-02-28T00:40:56;6.78;;;3.10;;
82410;SDS011;76378;60.040;30.218;2024-02-28T00:41:57;6.85;;;3.00;;
82410;SDS011;76378;60.040;30.218;2024-02-28T00:42:57;6.95;;;2.90;;
82410;SDS011;76378;60.040;30.218;2024-02-28T00:43:58;8.45;;;3.03;;
82410;SDS011;76378;60.040;30.218;2024-02-28T00:44:58;6.38;;;2.95;;
82410;SDS011;76378;60.040;30.218;2024-02-28T00:45:59;7.22;;;3.13;;
82410;SDS011;76378;60.040;30.218;2024-02-28T00:46:59;8.00;;;3.10;;
82410;SDS011;76378;60.040;30.218;2024-02-28T00:48:00;7.80;;;3.08;;
82410;SDS011;76378;60.040;30.218;2024-02-28T00:49:01;7.53;;;3.20;;
82410;SDS011;76378;60.040;30.218;2024-02-28T00:50:02;6.82;;;2.85;;
82410;SDS011;76378;60.040;30.218;2024-02-28T00:51:03;6.45;;;3.10;;
82410;SDS011;76378;60.040;30.218;2024-02-28T00:52:03;6.35;;;3.00;;
82410;SDS011;76378;60.040;30.218;2024-02-28T00:53:05;6.85;;;3.22;;
82410;SDS011;76378;60.040;30.218;2024-02-28T00:54:05;10.05;;;3.28;;
82410;SDS011;76378;60.040;30.218;2024-02-28T00:55:06;6.65;;;2.90;;
82410;SDS011;76378;60.040;30.218;2024-02-28T00:56:07;5.68;;;2.78;;
82410;SDS011;76378;60.040;30.218;2024-02-28T00:57:07;6.35;;;3.10;;
82410;SDS011;76378;60.040;30.218;2024-02-28T00:58:08;6.57;;;3.28;;
82410;SDS011;76378;60.040;30.218;2024-02-28T00:59:09;6.35;;;3.10;;
82410;SDS011;76378;60.040;30.218;2024-02-28T01:00:12;6.05;;;3.20;;
82410;SDS011;76378;60.040;30.218;2024-02-28T01:01:13;6.20;;;2.80;;
82410;SDS011;76378;60.040;30.218;2024-02-28T01:02:14;8.35;;;3.60;;
82410;SDS011;76378;60.040;30.218;2024-02-28T01:03:14;6.75;;;3.20;;
82410;SDS011;76378;60.040;30.218;2024-02-28T01:04:15;6.68;;;3.10;;
82410;SDS011;76378;60.040;30.218;2024-02-28T01:05:16;5.80;;;2.92;;
82410;SDS011;76378;60.040;30.218;2024-02-28T01:06:16;8.48;;;3.45;;
82410;SDS011;76378;60.040;30.218;2024-02-28T01:07:17;8.27;;;3.90;;
82410;SDS011;76378;60.040;30.218;2024-02-28T01:08:18;6.10;;;3.15;;
82410;SDS011;76378;60.040;30.218;2024-02-28T01:09:18;6.28;;;3.20;;
82410;SDS011;76378;60.040;30.218;2024-02-28T01:10:19;6.43;;;3.20;;
82410;SDS011;76378;60.040;30.218;2024-02-28T01:11:19;6.93;;;2.92;;
82410;SDS011;76378;60.040;30.218;2024-02-28T01:12:20;6.15;;;3.13;;
82410;SDS011;76378;60.040;30.218;2024-02-28T01:13:20;6.65;;;2.85;;
82410;SDS011;76378;60.040;30.218;2024-02-28T01:14:21;6.25;;;2.78;;
82410;SDS011;76378;60.040;30.218;2024-02-28T01:15:22;6.30;;;3.28;;
82410;SDS011;76378;60.040;30.218;2024-02-28T01:16:22;5.97;;;2.90;;
82410;SDS011;76378;60.040;30.218;2024-02-28T01:17:23;5.82;;;3.20;;
82410;SDS011;76378;60.040;30.218;2024-02-28T01:18:23;5.70;;;3.10;;
82410;SDS011;76378;60.040;30.218;2024-02-28T01:19:24;6.22;;;3.40;;
82410;SDS011;76378;60.040;30.218;2024-02-28T01:20:24;5.30;;;2.95;;
82410;SDS011;76378;60.040;30.218;2024-02-28T01:21:25;7.47;;;3.10;;
82410;SDS011;76378;60.040;30.218;2024-02-28T01:22:25;5.80;;;2.80;;
82410;SDS011;76378;60.040;30.218;2024-02-28T01:23:26;5.35;;;2.90;;
82410;SDS011;76378;60.040;30.218;2024-02-28T01:24:27;7.03;;;3.28;;
82410;SDS011;76378;60.040;30.218;2024-02-28T01:25:27;5.60;;;3.00;;
82410;SDS011;76378;60.040;30.218;2024-02-28T01:26:28;4.40;;;2.50;;
82410;SDS011;76378;60.040;30.218;2024-02-28T01:27:28;6.40;;;3.40;;
82410;SDS011;76378;60.040;30.218;2024-02-28T01:28:29;5.93;;;2.95;;
82410;SDS011;76378;60.040;30.218;2024-02-28T01:29:30;6.68;;;3.53;;
82410;SDS011;76378;60.040;30.218;2024-02-28T01:30:30;8.00;;;3.20;;
82410;SDS011;76378;60.040;30.218;2024-02-28T01:31:31;5.38;;;2.72;;
82410;SDS011;76378;60.040;30.218;2024-02-28T01:32:31;7.38;;;3.03;;
82410;SDS011;76378;60.040;30.218;2024-02-28T01:33:32;6.95;;;2.70;;
82410;SDS011;76378;60.040;30.218;2024-02-28T01:34:32;6.50;;;3.00;;
82410;SDS011;76378;60.040;30.218;2024-02-28T01:35:33;5.15;;;2.60;;
82410;SDS011;76378;60.040;30.218;2024-02-28T01:36:33;7.47;;;2.90;;
82410;SDS011;76378;60.040;30.218;2024-02-28T01:37:34;6.88;;;3.17;;
82410;SDS011;76378;60.040;30.218;2024-02-28T01:38:35;5.32;;;3.00;;
82410;SDS011;76378;60.040;30.218;2024-02-28T01:39:35;6.70;;;2.70;;
82410;SDS011;76378;60.040;30.218;2024-02-28T01:40:36;6.13;;;2.80;;
82410;SDS011;76378;60.040;30.218;2024-02-28T01:41:36;5.28;;;2.80;;
82410;SDS011;76378;60.040;30.218;2024-02-28T01:42:37;6.43;;;3.20;;
82410;SDS011;76378;60.040;30.218;2024-02-28T01:43:37;6.50;;;3.28;;
82410;SDS011;76378;60.040;30.218;2024-02-28T01:44:40;5.97;;;2.80;;
82410;SDS011;76378;60.040;30.218;2024-02-28T01:45:46;6.35;;;2.75;;
82410;SDS011;76378;60.040;30.218;2024-02-28T01:46:46;5.72;;;3.10;;
82410;SDS011;76378;60.040;30.218;2024-02-28T01:47:47;6.03;;;2.83;;
82410;SDS011;76378;60.040;30.218;2024-02-28T01:48:49;7.55;;;3.25;;
82410;SDS011;76378;60.040;30.218;2024-02-28T01:49:50;6.10;;;3.13;;
82410;SDS011;76378;60.040;30.218;2024-02-28T01:50:51;5.03;;;2.78;;
82410;SDS011;76378;60.040;30.218;2024-02-28T01:51:51;4.97;;;2.50;;
82410;SDS011;76378;60.040;30.218;2024-02-28T01:52:53;6.57;;;2.78;;
82410;SDS011;76378;60.040;30.218;2024-02-28T01:53:54;4.68;;;2.63;;
82410;SDS011;76378;60.040;30.218;2024-02-28T01:54:56;4.95;;;2.83;;
82410;SDS011;76378;60.040;30.218;2024-02-28T01:55:57;4.38;;;2.45;;
82410;SDS011;76378;60.040;30.218;2024-02-28T01:56:57;5.85;;;2.53;;
82410;SDS011;76378;60.040;30.218;2024-02-28T01:57:58;6.20;;;2.85;;
82410;SDS011;76378;60.040;30.218;2024-02-28T01:58:58;5.65;;;2.78;;
82410;SDS011;76378;60.040;30.218;2024-02-28T02:00:00;4.25;;;2.25;;
82410;SDS011;76378;60.040;30.218;2024-02-28T02:01:01;5.70;;;2.47;;
82410;SDS011;76378;60.040;30.218;2024-02-28T02:02:03;4.00;;;2.70;;
82410;SDS011;76378;60.040;30.218;2024-02-28T02:03:04;4.80;;;2.60;;
82410;SDS011;76378;60.040;30.218;2024-02-28T02:04:04;5.18;;;2.33;;
82410;SDS011;76378;60.040;30.218;2024-02-28T02:05:05;4.85;;;2.42;;
82410;SDS011;76378;60.040;30.218;2024-02-28T02:06:06;4.63;;;2.40;;
82410;SDS011;76378;60.040;30.218;2024-02-28T02:07:07;3.90;;;2.30;;
82410;SDS011;76378;60.040;30.218;2024-02-28T02:08:07;4.40;;;2.40;;
82410;SDS011;76378;60.040;30.218;2024-02-28T02:09:08;4.15;;;2.40;;
82410;SDS011;76378;60.040;30.218;2024-02-28T02:10:08;3.92;;;2.08;;
82410;SDS011;76378;60.040;30.218;2024-02-28T02:11:12;5.75;;;2.67;;
82410;SDS011;76378;60.040;30.218;2024-02-28T02:12:15;5.75;;;2.50;;
82410;SDS011;76378;60.040;30.218;2024-02-28T02:14:16;4.35;;;2.05;;
82410;SDS011;76378;60.040;30.218;2024-02-28T02:15:17;4.35;;;2.28;;
82410;SDS011;76378;60.040;30.218;2024-02-28T02:16:18;4.00;;;2.20;;
82410;SDS011;76378;60.040;30.218;2024-02-28T02:17:19;4.53;;;2.55;;
82410;SDS011;76378;60.040;30.218;2024-02-28T02:18:19;4.95;;;2.63;;
82410;SDS011;76378;60.040;30.218;2024-02-28T02:19:20;5.38;;;2.50;;
82410;SDS011;76378;60.040;30.218;2024-02-28T02:20:20;6.68;;;2.22;;
82410;SDS011;76378;60.040;30.218;2024-02-28T02:21:23;4.25;;;2.35;;
82410;SDS011;76378;60.040;30.218;2024-02-28T02:22:27;3.70;;;2.10;;
82410;SDS011;76378;60.040;30.218;2024-02-28T02:23:32;5.03;;;2.17;;
82410;SDS011;76378;60.040;30.218;2024-02-28T02:24:33;4.75;;;2.30;;
82410;SDS011;76378;60.040;30.218;2024-02-28T02:25:33;4.22;;;2.15;;
82410;SDS011;76378;60.040;30.218;2024-02-28T02:26:34;5.80;;;2.50;;
82410;SDS011;76378;60.040;30.218;2024-02-28T02:27:35;4.97;;;2.50;;
82410;SDS011;76378;60.040;30.218;2024-02-28T02:28:35;5.75;;;2.08;;
82410;SDS011;76378;60.040;30.218;2024-02-28T02:29:36;4.97;;;2.70;;
82410;SDS011;76378;60.040;30.218;2024-02-28T02:30:37;4.32;;;2.17;;
82410;SDS011;76378;60.040;30.218;2024-02-28T02:31:38;3.30;;;1.92;;
82410;SDS011;76378;60.040;30.218;2024-02-28T02:32:40;4.90;;;2.80;;
82410;SDS011;76378;60.040;30.218;2024-02-28T02:33:41;3.90;;;2.13;;
82410;SDS011;76378;60.040;30.218;2024-02-28T02:34:41;3.65;;;2.03;;
82410;SDS011;76378;60.040;30.218;2024-02-28T02:35:42;5.03;;;2.35;;
82410;SDS011;76378;60.040;30.218;2024-02-28T02:36:42;4.25;;;2.30;;
82410;SDS011;76378;60.040;30.218;2024-02-28T02:37:43;4.30;;;2.40;;
82410;SDS011;76378;60.040;30.218;2024-02-28T02:38:45;4.28;;;2.30;;
82410;SDS011;76378;60.040;30.218;2024-02-28T02:39:46;3.80;;;2.15;;
82410;SDS011;76378;60.040;30.218;2024-02-28T02:40:53;5.15;;;2.50;;
82410;SDS011;76378;60.040;30.218;2024-02-28T02:41:53;4.60;;;2.20;;
82410;SDS011;76378;60.040;30.218;2024-02-28T02:42:54;4.13;;;2.20;;
82410;SDS011;76378;60.040;30.218;2024-02-28T02:43:54;4.78;;;2.45;;
82410;SDS011;76378;60.040;30.218;2024-02-28T02:44:55;4.65;;;2.28;;
82410;SDS011;76378;60.040;30.218;2024-02-28T02:45:55;4.47;;;2.30;;
82410;SDS011;76378;60.040;30.218;2024-02-28T02:46:56;3.97;;;2.30;;
82410;SDS011;76378;60.040;30.218;2024-02-28T02:47:56;5.90;;;2.60;;
82410;SDS011;76378;60.040;30.218;2024-02-28T02:48:57;4.88;;;2.10;;
82410;SDS011;76378;60.040;30.218;2024-02-28T02:49:57;3.53;;;2.13;;
82410;SDS011;76378;60.040;30.218;2024-02-28T02:50:58;3.30;;;2.10;;
82410;SDS011;76378;60.040;30.218;2024-02-28T02:51:58;5.00;;;2.05;;
82410;SDS011;76378;60.040;30.218;2024-02-28T02:52:59;4.63;;;2.30;;
82410;SDS011;76378;60.040;30.218;2024-02-28T02:53:59;4.43;;;2.25;;
82410;SDS011;76378;60.040;30.218;2024-02-28T02:55:00;3.50;;;2.10;;
82410;SDS011;76378;60.040;30.218;2024-02-28T02:56:03;5.45;;;2.25;;
82410;SDS011;76378;60.040;30.218;2024-02-28T02:57:04;3.72;;;2.38;;
82410;SDS011;76378;60.040;30.218;2024-02-28T02:58:04;3.55;;;2.25;;
82410;SDS011;76378;60.040;30.218;2024-02-28T02:59:05;3.72;;;2.28;;
82410;SDS011;76378;60.040;30.218;2024-02-28T03:00:07;3.50;;;2.05;;
82410;SDS011;76378;60.040;30.218;2024-02-28T03:01:09;4.47;;;2.10;;
82410;SDS011;76378;60.040;30.218;2024-02-28T03:02:09;5.00;;;2.22;;
82410;SDS011;76378;60.040;30.218;2024-02-28T03:03:10;4.57;;;2.53;;
82410;SDS011;76378;60.040;30.218;2024-02-28T03:04:10;3.95;;;2.10;;
82410;SDS011;76378;60.040;30.218;2024-02-28T03:05:11;3.65;;;2.20;;
82410;SDS011;76378;60.040;30.218;2024-02-28T03:06:11;3.75;;;2.13;;
82410;SDS011;76378;60.040;30.218;2024-02-28T03:07:12;4.20;;;2.33;;
82410;SDS011;76378;60.040;30.218;2024-02-28T03:08:12;3.40;;;2.00;;
82410;SDS011;76378;60.040;30.218;2024-02-28T03:09:13;4.57;;;2.30;;
82410;SDS011;76378;60.040;30.218;2024-02-28T03:10:13;3.22;;;2.13;;
82410;SDS011;76378;60.040;30.218;2024-02-28T03:11:14;3.78;;;2.33;;
82410;SDS011;76378;60.040;30.218;2024-02-28T03:12:15;4.75;;;2.38;;
82410;SDS011;76378;60.040;30.218;2024-02-28T03:13:15;3.75;;;2.10;;
82410;SDS011;76378;60.040;30.218;2024-02-28T03:14:16;3.30;;;2.10;;
82410;SDS011;76378;60.040;30.218;2024-02-28T03:15:16;3.50;;;2.10;;
82410;SDS011;76378;60.040;30.218;2024-02-28T03:16:17;3.47;;;2.20;;
82410;SDS011;76378;60.040;30.218;2024-02-28T03:17:17;3.97;;;2.20;;
82410;SDS011;76378;60.040;30.218;2024-02-28T03:18:18;4.85;;;2.10;;
82410;SDS011;76378;60.040;30.218;2024-02-28T03:19:19;4.45;;;2.25;;
82410;SDS011;76378;60.040;30.218;2024-02-28T03:20:20;5.07;;;2.40;;
82410;SDS011;76378;60.040;30.218;2024-02-28T03:21:21;4.13;;;2.28;;
82410;SDS011;76378;60.040;30.218;2024-02-28T03:22:22;3.70;;;2.05;;
82410;SDS011;76378;60.040;30.218;2024-02-28T03:23:22;3.50;;;1.80;;
82410;SDS011;76378;60.040;30.218;2024-02-28T03:24:23;3.85;;;2.00;;
82410;SDS011;76378;60.040;30.218;2024-02-28T03:25:23;3.35;;;1.98;;
82410;SDS011;76378;60.040;30.218;2024-02-28T03:26:24;3.63;;;2.00;;
82410;SDS011;76378;60.040;30.218;2024-02-28T03:27:25;3.53;;;2.00;;
82410;SDS011;76378;60.040;30.218;2024-02-28T03:28:26;4.20;;;2.10;;
82410;SDS011;76378;60.040;30.218;2024-02-28T03:29:26;4.20;;;2.20;;
82410;SDS011;76378;60.040;30.218;2024-02-28T03:30:27;3.45;;;1.90;;
82410;SDS011;76378;60.040;30.218;2024-02-28T03:31:28;4.45;;;2.30;;
82410;SDS011;76378;60.040;30.218;2024-02-28T03:32:28;4.32;;;2.20;;
82410;SDS011;76378;60.040;30.218;2024-02-28T03:33:29;3.58;;;1.80;;
82410;SDS011;76378;60.040;30.218;2024-02-28T03:34:32;3.58;;;1.92;;
82410;SDS011;76378;60.040;30.218;2024-02-28T03:35:32;4.40;;;2.17;;
82410;SDS011;76378;60.040;30.218;2024-02-28T03:36:33;3.67;;;2.20;;
82410;SDS011;76378;60.040;30.218;2024-02-28T03:37:33;3.80;;;2.05;;
82410;SDS011;76378;60.040;30.218;2024-02-28T03:38:34;3.65;;;2.10;;
82410;SDS011;76378;60.040;30.218;2024-02-28T03:39:35;3.20;;;1.90;;
82410;SDS011;76378;60.040;30.218;2024-02-28T03:40:35;5.22;;;2.30;;
82410;SDS011;76378;60.040;30.218;2024-02-28T03:41:36;3.63;;;2.00;;
82410;SDS011;76378;60.040;30.218;2024-02-28T03:42:36;3.22;;;1.95;;
82410;SDS011;76378;60.040;30.218;2024-02-28T03:43:37;3.42;;;1.90;;
82410;SDS011;76378;60.040;30.218;2024-02-28T03:44:37;3.60;;;2.05;;
82410;SDS011;76378;60.040;30.218;2024-02-28T03:45:38;3.40;;;2.08;;
82410;SDS011;76378;60.040;30.218;2024-02-28T03:46:39;3.78;;;1.90;;
82410;SDS011;76378;60.040;30.218;2024-02-28T03:47:40;3.30;;;2.03;;
82410;SDS011;76378;60.040;30.218;2024-02-28T03:48:40;3.75;;;2.10;;
82410;SDS011;76378;60.040;30.218;2024-02-28T03:49:41;3.33;;;2.00;;
82410;SDS011;76378;60.040;30.218;2024-02-28T03:50:41;3.38;;;1.77;;
82410;SDS011;76378;60.040;30.218;2024-02-28T03:51:42;4.18;;;2.08;;
82410;SDS011;76378;60.040;30.218;2024-02-28T03:52:42;3.20;;;1.75;;
82410;SDS011;76378;60.040;30.218;2024-02-28T03:53:43;4.07;;;2.03;;
82410;SDS011;76378;60.040;30.218;2024-02-28T03:54:43;3.25;;;1.80;;
82410;SDS011;76378;60.040;30.218;2024-02-28T03:55:44;3.40;;;2.10;;
82410;SDS011;76378;60.040;30.218;2024-02-28T03:56:45;2.45;;;1.75;;
82410;SDS011;76378;60.040;30.218;2024-02-28T03:57:49;3.78;;;2.08;;
82410;SDS011;76378;60.040;30.218;2024-02-28T03:58:52;4.32;;;2.22;;
82410;SDS011;76378;60.040;30.218;2024-02-28T04:00:53;3.35;;;1.90;;
82410;SDS011;76378;60.040;30.218;2024-02-28T04:01:53;4.00;;;1.90;;
82410;SDS011;76378;60.040;30.218;2024-02-28T04:02:54;3.13;;;1.63;;
82410;SDS011;76378;60.040;30.218;2024-02-28T04:03:55;4.22;;;2.08;;
82410;SDS011;76378;60.040;30.218;2024-02-28T04:04:55;4.78;;;2.28;;
82410;SDS011;76378;60.040;30.218;2024-02-28T04:05:56;3.63;;;2.10;;
82410;SDS011;76378;60.040;30.218;2024-02-28T04:06:56;3.92;;;2.20;;
82410;SDS011;76378;60.040;30.218;2024-02-28T04:07:57;3.95;;;2.25;;
82410;SDS011;76378;60.040;30.218;2024-02-28T04:08:58;3.95;;;2.10;;
82410;SDS011;76378;60.040;30.218;2024-02-28T04:09:58;3.25;;;1.92;;
82410;SDS011;76378;60.040;30.218;2024-02-28T04:10:59;4.10;;;2.22;;
82410;SDS011;76378;60.040;30.218;2024-02-28T04:11:59;3.45;;;2.00;;
82410;SDS011;76378;60.040;30.218;2024-02-28T04:13:00;3.10;;;2.05;;
82410;SDS011;76378;60.040;30.218;2024-02-28T04:14:00;3.97;;;2.10;;
82410;SDS011;76378;60.040;30.218;2024-02-28T04:15:01;3.38;;;1.73;;
82410;SDS011;76378;60.040;30.218;2024-02-28T04:16:02;4.10;;;2.50;;
82410;SDS011;76378;60.040;30.218;2024-02-28T04:17:03;3.72;;;2.22;;
82410;SDS011;76378;60.040;30.218;2024-02-28T04:18:04;3.90;;;2.08;;
82410;SDS011;76378;60.040;30.218;2024-02-28T04:19:04;3.67;;;2.25;;
82410;SDS011;76378;60.040;30.218;2024-02-28T04:20:11;4.00;;;2.10;;
82410;SDS011;76378;60.040;30.218;2024-02-28T04:21:12;4.15;;;2.17;;
82410;SDS011;76378;60.040;30.218;2024-02-28T04:22:13;4.05;;;2.40;;
82410;SDS011;76378;60.040;30.218;2024-02-28T04:23:13;4.07;;;2.17;;
82410;SDS011;76378;60.040;30.218;2024-02-28T04:24:14;4.20;;;2.30;;
82410;SDS011;76378;60.040;30.218;2024-02-28T04:25:14;3.17;;;1.90;;
82410;SDS011;76378;60.040;30.218;2024-02-28T04:26:15;4.10;;;2.05;;
82410;SDS011;76378;60.040;30.218;2024-02-28T04:27:16;3.72;;;1.90;;
82410;SDS011;76378;60.040;30.218;2024-02-28T04:28:16;4.22;;;2.20;;
82410;SDS011;76378;60.040;30.218;2024-02-28T04:29:17;3.65;;;2.10;;
82410;SDS011;76378;60.040;30.218;2024-02-28T04:30:17;3.88;;;2.17;;
82410;SDS011;76378;60.040;30.218;2024-02-28T04:31:18;4.80;;;2.47;;
82410;SDS011;76378;60.040;30.218;2024-02-28T04:32:18;3.53;;;2.35;;
82410;SDS011;76378;60.040;30.218;2024-02-28T04:33:19;4.93;;;2.38;;
82410;SDS011;76378;60.040;30.218;2024-02-28T04:34:19;3.50;;;2.22;;
82410;SDS011;76378;60.040;30.218;2024-02-28T04:35:20;3.25;;;2.22;;
82410;SDS011;76378;60.040;30.218;2024-02-28T04:36:21;3.92;;;2.25;;
82410;SDS011;76378;60.040;30.218;2024-02-28T04:37:21;3.72;;;2.15;;
82410;SDS011;76378;60.040;30.218;2024-02-28T04:38:22;3.88;;;2.15;;
82410;SDS011;76378;60.040;30.218;2024-02-28T04:39:22;4.18;;;1.90;;
82410;SDS011;76378;60.040;30.218;2024-02-28T04:40:23;3.97;;;2.25;;
82410;SDS011;76378;60.040;30.218;2024-02-28T04:41:23;4.80;;;2.53;;
82410;SDS011;76378;60.040;30.218;2024-02-28T04:42:24;6.03;;;2.45;;
82410;SDS011;76378;60.040;30.218;2024-02-28T04:43:24;4.75;;;2.17;;
82410;SDS011;76378;60.040;30.218;2024-02-28T04:44:25;3.50;;;2.10;;
82410;SDS011;76378;60.040;30.218;2024-02-28T04:45:26;4.43;;;2.40;;
82410;SDS011;76378;60.040;30.218;2024-02-28T04:46:26;2.85;;;1.83;;
82410;SDS011;76378;60.040;30.218;2024-02-28T04:47:27;3.50;;;1.98;;
82410;SDS011;76378;60.040;30.218;2024-02-28T04:48:27;3.72;;;2.28;;
82410;SDS011;76378;60.040;30.218;2024-02-28T04:49:28;4.18;;;2.10;;
82410;SDS011;76378;60.040;30.218;2024-02-28T04:50:28;4.13;;;2.25;;
82410;SDS011;76378;60.040;30.218;2024-02-28T04:51:29;3.50;;;2.03;;
82410;SDS011;76378;60.040;30.218;2024-02-28T04:52:29;4.50;;;2.70;;
82410;SDS011;76378;60.040;30.218;2024-02-28T04:53:30;3.83;;;1.95;;
82410;SDS011;76378;60.040;30.218;2024-02-28T04:54:31;5.55;;;2.83;;
82410;SDS011;76378;60.040;30.218;2024-02-28T04:55:32;3.47;;;2.08;;
82410;SDS011;76378;60.040;30.218;2024-02-28T04:56:32;4.80;;;2.35;;
82410;SDS011;76378;60.040;30.218;2024-02-28T04:57:33;6.07;;;2.38;;
82410;SDS011;76378;60.040;30.218;2024-02-28T04:58:33;3.45;;;1.83;;
82410;SDS011;76378;60.040;30.218;2024-02-28T04:59:35;4.90;;;2.40;;
82410;SDS011;76378;60.040;30.218;2024-02-28T05:00:36;3.75;;;2.13;;
82410;SDS011;76378;60.040;30.218;2024-02-28T05:01:36;3.97;;;1.92;;
82410;SDS011;76378;60.040;30.218;2024-02-28T05:02:39;3.92;;;2.35;;
82410;SDS011;76378;60.040;30.218;2024-02-28T05:03:40;3.90;;;2.20;;
82410;SDS011;76378;60.040;30.218;2024-02-28T05:04:40;4.45;;;2.17;;
82410;SDS011;76378;60.040;30.218;2024-02-28T05:05:41;3.13;;;1.92;;
82410;SDS011;76378;60.040;30.218;2024-02-28T05:06:41;3.78;;;2.17;;
82410;SDS011;76378;60.040;30.218;2024-02-28T05:07:42;4.30;;;2.35;;
82410;SDS011;76378;60.040;30.218;2024-02-28T05:08:42;3.60;;;2.13;;
82410;SDS011;76378;60.040;30.218;2024-02-28T05:09:43;4.13;;;2.20;;
82410;SDS011;76378;60.040;30.218;2024-02-28T05:10:43;3.70;;;2.05;;
82410;SDS011;76378;60.040;30.218;2024-02-28T05:11:44;3.78;;;2.20;;
82410;SDS011;76378;60.040;30.218;2024-02-28T05:12:45;5.07;;;2.40;;
82410;SDS011;76378;60.040;30.218;2024-02-28T05:13:45;4.90;;;2.53;;
82410;SDS011;76378;60.040;30.218;2024-02-28T05:14:46;5.78;;;2.53;;
82410;SDS011;76378;60.040;30.218;2024-02-28T05:15:46;5.10;;;2.20;;
82410;SDS011;76378;60.040;30.218;2024-02-28T05:16:47;4.93;;;2.47;;
82410;SDS011;76378;60.040;30.218;2024-02-28T05:17:50;6.00;;;2.53;;
82410;SDS011;76378;60.040;30.218;2024-02-28T05:18:51;4.97;;;2.80;;
82410;SDS011;76378;60.040;30.218;2024-02-28T05:19:52;4.85;;;2.33;;
82410;SDS011;76378;60.040;30.218;2024-02-28T05:20:53;5.80;;;2.47;;
82410;SDS011;76378;60.040;30.218;2024-02-28T05:21:53;4.05;;;2.33;;
82410;SDS011;76378;60.040;30.218;2024-02-28T05:22:54;6.15;;;2.53;;
82410;SDS011;76378;60.040;30.218;2024-02-28T05:23:54;4.97;;;2.50;;
82410;SDS011;76378;60.040;30.218;2024-02-28T05:24:55;5.78;;;2.85;;
82410;SDS011;76378;60.040;30.218;2024-02-28T05:25:56;5.43;;;2.72;;
82410;SDS011;76378;60.040;30.218;2024-02-28T05:26:57;4.68;;;2.35;;
82410;SDS011;76378;60.040;30.218;2024-02-28T05:27:57;5.57;;;2.80;;
82410;SDS011;76378;60.040;30.218;2024-02-28T05:28:58;4.88;;;2.47;;
82410;SDS011;76378;60.040;30.218;2024-02-28T05:29:59;4.78;;;2.40;;
82410;SDS011;76378;60.040;30.218;2024-02-28T05:32:34;4.43;;;2.30;;
82410;SDS011;76378;60.040;30.218;2024-02-28T05:33:34;5.20;;;2.10;;
82410;SDS011;76378;60.040;30.218;2024-02-28T05:34:35;5.47;;;2.78;;
82410;SDS011;76378;60.040;30.218;2024-02-28T05:35:35;4.90;;;2.83;;
82410;SDS011;76378;60.040;30.218;2024-02-28T05:36:36;4.28;;;2.45;;
82410;SDS011;76378;60.040;30.218;2024-02-28T05:37:36;6.20;;;2.65;;
82410;SDS011;76378;60.040;30.218;2024-02-28T05:38:37;4.82;;;2.47;;
82410;SDS011;76378;60.040;30.218;2024-02-28T05:39:38;4.50;;;2.45;;
82410;SDS011;76378;60.040;30.218;2024-02-28T05:40:38;3.55;;;2.40;;
82410;SDS011;76378;60.040;30.218;2024-02-28T05:41:41;5.53;;;2.78;;
82410;SDS011;76378;60.040;30.218;2024-02-28T05:42:41;6.32;;;2.55;;
82410;SDS011;76378;60.040;30.218;2024-02-28T05:43:43;7.03;;;2.80;;
82410;SDS011;76378;60.040;30.218;2024-02-28T05:44:43;5.10;;;2.40;;
82410;SDS011;76378;60.040;30.218;2024-02-28T05:45:44;4.47;;;2.28;;
82410;SDS011;76378;60.040;30.218;2024-02-28T05:46:45;4.85;;;2.38;;
82410;SDS011;76378;60.040;30.218;2024-02-28T05:47:45;4.90;;;2.40;;
82410;SDS011;76378;60.040;30.218;2024-02-28T05:48:46;4.78;;;2.42;;
82410;SDS011;76378;60.040;30.218;2024-02-28T05:49:46;5.55;;;2.47;;
82410;SDS011;76378;60.040;30.218;2024-02-28T05:50:47;5.03;;;2.58;;
82410;SDS011;76378;60.040;30.218;2024-02-28T05:51:47;5.72;;;2.50;;
82410;SDS011;76378;60.040;30.218;2024-02-28T05:52:48;3.92;;;2.58;;
82410;SDS011;76378;60.040;30.218;2024-02-28T05:53:49;5.07;;;2.20;;
82410;SDS011;76378;60.040;30.218;2024-02-28T05:54:49;6.60;;;2.80;;
82410;SDS011;76378;60.040;30.218;2024-02-28T05:55:50;4.97;;;2.63;;
82410;SDS011;76378;60.040;30.218;2024-02-28T05:56:50;5.00;;;2.42;;
82410;SDS011;76378;60.040;30.218;2024-02-28T05:57:52;4.80;;;2.53;;
82410;SDS011;76378;60.040;30.218;2024-02-28T05:58:53;5.10;;;2.53;;
82410;SDS011;76378;60.040;30.218;2024-02-28T05:59:53;4.30;;;2.55;;
82410;SDS011;76378;60.040;30.218;2024-02-28T06:00:54;4.78;;;2.58;;
82410;SDS011;76378;60.040;30.218;2024-02-28T06:01:54;4.57;;;2.95;;
82410;SDS011;76378;60.040;30.218;2024-02-28T06:02:55;4.10;;;2.10;;
82410;SDS011;76378;60.040;30.218;2024-02-28T06:03:56;5.03;;;2.55;;
82410;SDS011;76378;60.040;30.218;2024-02-28T06:04:56;4.85;;;2.38;;
82410;SDS011;76378;60.040;30.218;2024-02-28T06:05:57;4.20;;;2.20;;